sensor_id;sensor_type;location;lat;lon;timestamp;P1;durP1;ratioP1;P2;durP2;ratioP2
6193;SDS011;3130;41.564;23.280;2023-04-03T00:00:23;3.30;;;3.03;;
6193;SDS011;3130;41.564;23.280;2023-04-03T00:02:50;3.17;;;2.83;;
6193;SDS011;3130;41.564;23.280;2023-04-03T00:05:17;2.90;;;2.70;;
6193;SDS011;3130;41.564;23.280;2023-04-03T00:07:44;3.13;;;2.80;;
6193;SDS011;3130;41.564;23.280;2023-04-03T00:10:13;3.53;;;2.77;;
6193;SDS011;3130;41.564;23.280;2023-04-03T00:12:40;2.77;;;2.53;;
6193;SDS011;3130;41.564;23.280;2023-04-03T00:15:07;2.80;;;2.70;;
6193;SDS011;3130;41.564;23.280;2023-04-03T00:17:35;3.00;;;2.80;;
6193;SDS011;3130;41.564;23.280;2023-04-03T00:20:02;3.23;;;2.77;;
6193;SDS011;3130;41.564;23.280;2023-04-03T00:22:30;2.67;;;2.43;;
6193;SDS011;3130;41.564;23.280;2023-04-03T00:24:57;3.43;;;3.13;;
6193;SDS011;3130;41.564;23.280;2023-04-03T00:27:25;4.43;;;2.90;;
6193;SDS011;3130;41.564;23.280;2023-04-03T00:29:52;3.03;;;2.60;;
6193;SDS011;3130;41.564;23.280;2023-04-03T00:32:19;3.40;;;3.17;;
6193;SDS011;3130;41.564;23.280;2023-04-03T00:34:46;3.10;;;2.90;;
6193;SDS011;3130;41.564;23.280;2023-04-03T00:37:13;3.47;;;3.17;;
6193;SDS011;3130;41.564;23.280;2023-04-03T00:39:40;4.47;;;2.60;;
6193;SDS011;3130;41.564;23.280;2023-04-03T00:42:07;2.90;;;2.70;;
6193;SDS011;3130;41.564;23.280;2023-04-03T00:47:39;2.90;;;2.70;;
6193;SDS011;3130;41.564;23.280;2023-04-03T00:50:08;3.13;;;2.93;;
6193;SDS011;3130;41.564;23.280;2023-04-03T00:52:35;3.10;;;2.83;;
6193;SDS011;3130;41.564;23.280;2023-04-03T00:55:06;2.80;;;2.60;;
6193;SDS011;3130;41.564;23.280;2023-04-03T00:57:35;4.47;;;2.97;;
6193;SDS011;3130;41.564;23.280;2023-04-03T01:00:05;3.47;;;3.17;;
6193;SDS011;3130;41.564;23.280;2023-04-03T01:02:36;2.33;;;2.23;;
6193;SDS011;3130;41.564;23.280;2023-04-03T01:05:07;4.20;;;3.03;;
6193;SDS011;3130;41.564;23.280;2023-04-03T01:07:36;5.23;;;3.10;;
6193;SDS011;3130;41.564;23.280;2023-04-03T01:10:04;3.30;;;3.00;;
6193;SDS011;3130;41.564;23.280;2023-04-03T01:12:34;3.30;;;3.00;;
6193;SDS011;3130;41.564;23.280;2023-04-03T01:15:03;2.70;;;2.50;;
6193;SDS011;3130;41.564;23.280;2023-04-03T01:17:32;4.97;;;3.10;;
6193;SDS011;3130;41.564;23.280;2023-04-03T01:23:10;2.27;;;2.10;;
6193;SDS011;3130;41.564;23.280;2023-04-03T01:25:45;5.13;;;3.30;;
6193;SDS011;3130;41.564;23.280;2023-04-03T01:28:15;4.60;;;4.20;;
6193;SDS011;3130;41.564;23.280;2023-04-03T01:30:45;8.00;;;4.40;;
6193;SDS011;3130;41.564;23.280;2023-04-03T01:33:18;4.77;;;4.20;;
6193;SDS011;3130;41.564;23.280;2023-04-03T01:35:45;4.73;;;4.27;;
6193;SDS011;3130;41.564;23.280;2023-04-03T01:38:12;5.60;;;4.13;;
6193;SDS011;3130;41.564;23.280;2023-04-03T01:40:40;4.80;;;3.83;;
6193;SDS011;3130;41.564;23.280;2023-04-03T01:43:07;4.23;;;3.83;;
6193;SDS011;3130;41.564;23.280;2023-04-03T01:45:34;4.90;;;4.50;;
6193;SDS011;3130;41.564;23.280;2023-04-03T01:48:01;4.97;;;4.43;;
6193;SDS011;3130;41.564;23.280;2023-04-03T01:50:31;3.50;;;3.20;;
6193;SDS011;3130;41.564;23.280;2023-04-03T01:52:58;4.30;;;3.90;;
6193;SDS011;3130;41.564;23.280;2023-04-03T01:55:25;3.67;;;3.37;;
6193;SDS011;3130;41.564;23.280;2023-04-03T01:57:52;3.43;;;3.13;;
6193;SDS011;3130;41.564;23.280;2023-04-03T02:00:19;3.57;;;3.27;;
6193;SDS011;3130;41.564;23.280;2023-04-03T02:02:46;3.40;;;3.10;;
6193;SDS011;3130;41.564;23.280;2023-04-03T02:05:13;3.17;;;2.90;;
6193;SDS011;3130;41.564;23.280;2023-04-03T02:07:42;3.70;;;3.40;;
6193;SDS011;3130;41.564;23.280;2023-04-03T02:10:09;3.77;;;3.03;;
6193;SDS011;3130;41.564;23.280;2023-04-03T02:12:36;4.43;;;3.30;;
6193;SDS011;3130;41.564;23.280;2023-04-03T02:15:03;3.57;;;3.27;;
6193;SDS011;3130;41.564;23.280;2023-04-03T02:17:31;4.70;;;3.43;;
6193;SDS011;3130;41.564;23.280;2023-04-03T02:19:58;4.20;;;3.80;;
6193;SDS011;3130;41.564;23.280;2023-04-03T02:22:25;3.57;;;3.23;;
6193;SDS011;3130;41.564;23.280;2023-04-03T02:24:54;4.23;;;3.17;;
6193;SDS011;3130;41.564;23.280;2023-04-03T02:27:21;3.67;;;2.77;;
6193;SDS011;3130;41.564;23.280;2023-04-03T02:29:48;3.37;;;3.10;;
6193;SDS011;3130;41.564;23.280;2023-04-03T02:32:15;3.27;;;2.97;;
6193;SDS011;3130;41.564;23.280;2023-04-03T02:34:42;3.90;;;3.17;;
6193;SDS011;3130;41.564;23.280;2023-04-03T02:37:09;4.00;;;3.60;;
6193;SDS011;3130;41.564;23.280;2023-04-03T02:39:36;3.83;;;3.47;;
6193;SDS011;3130;41.564;23.280;2023-04-03T02:42:05;3.03;;;2.73;;
6193;SDS011;3130;41.564;23.280;2023-04-03T02:44:32;3.80;;;3.30;;
6193;SDS011;3130;41.564;23.280;2023-04-03T02:46:59;2.83;;;2.63;;
6193;SDS011;3130;41.564;23.280;2023-04-03T02:49:26;3.83;;;3.53;;
6193;SDS011;3130;41.564;23.280;2023-04-03T02:51:53;3.97;;;2.80;;
6193;SDS011;3130;41.564;23.280;2023-04-03T02:54:20;3.90;;;3.43;;
6193;SDS011;3130;41.564;23.280;2023-04-03T02:56:48;4.93;;;3.33;;
6193;SDS011;3130;41.564;23.280;2023-04-03T02:59:16;3.60;;;3.27;;
6193;SDS011;3130;41.564;23.280;2023-04-03T03:01:43;3.03;;;2.83;;
6193;SDS011;3130;41.564;23.280;2023-04-03T03:04:10;2.77;;;2.57;;
6193;SDS011;3130;41.564;23.280;2023-04-03T03:06:37;3.87;;;3.00;;
6193;SDS011;3130;41.564;23.280;2023-04-03T03:09:05;3.33;;;3.03;;
6193;SDS011;3130;41.564;23.280;2023-04-03T03:11:32;3.33;;;2.97;;
6193;SDS011;3130;41.564;23.280;2023-04-03T03:13:59;4.13;;;2.97;;
6193;SDS011;3130;41.564;23.280;2023-04-03T03:16:27;3.03;;;2.80;;
6193;SDS011;3130;41.564;23.280;2023-04-03T03:18:54;3.60;;;3.30;;
6193;SDS011;3130;41.564;23.280;2023-04-03T03:21:21;4.00;;;3.20;;
6193;SDS011;3130;41.564;23.280;2023-04-03T03:23:49;5.90;;;3.13;;
6193;SDS011;3130;41.564;23.280;2023-04-03T03:26:16;3.43;;;2.97;;
6193;SDS011;3130;41.564;23.280;2023-04-03T03:28:43;3.50;;;3.20;;
6193;SDS011;3130;41.564;23.280;2023-04-03T03:31:10;7.37;;;3.67;;
6193;SDS011;3130;41.564;23.280;2023-04-03T03:33:38;3.47;;;3.17;;
6193;SDS011;3130;41.564;23.280;2023-04-03T03:36:06;3.50;;;3.20;;
6193;SDS011;3130;41.564;23.280;2023-04-03T03:38:33;3.57;;;3.27;;
6193;SDS011;3130;41.564;23.280;2023-04-03T03:41:00;4.13;;;3.73;;
6193;SDS011;3130;41.564;23.280;2023-04-03T03:43:27;3.73;;;3.20;;
6193;SDS011;3130;41.564;23.280;2023-04-03T03:45:54;4.17;;;3.60;;
6193;SDS011;3130;41.564;23.280;2023-04-03T03:48:22;4.97;;;3.50;;
6193;SDS011;3130;41.564;23.280;2023-04-03T03:50:50;4.57;;;3.60;;
6193;SDS011;3130;41.564;23.280;2023-04-03T03:53:17;4.47;;;3.83;;
6193;SDS011;3130;41.564;23.280;2023-04-03T03:55:45;6.40;;;3.00;;
6193;SDS011;3130;41.564;23.280;2023-04-03T03:58:12;3.63;;;3.33;;
6193;SDS011;3130;41.564;23.280;2023-04-03T04:00:39;5.20;;;3.00;;
6193;SDS011;3130;41.564;23.280;2023-04-03T04:03:06;4.87;;;3.50;;
6193;SDS011;3130;41.564;23.280;2023-04-03T04:05:33;8.60;;;4.93;;
6193;SDS011;3130;41.564;23.280;2023-04-03T04:08:01;4.20;;;3.50;;
6193;SDS011;3130;41.564;23.280;2023-04-03T04:10:28;3.87;;;3.47;;
6193;SDS011;3130;41.564;23.280;2023-04-03T04:12:55;5.50;;;3.40;;
6193;SDS011;3130;41.564;23.280;2023-04-03T04:15:22;5.13;;;3.10;;
6193;SDS011;3130;41.564;23.280;2023-04-03T04:17:50;2.97;;;2.50;;
6193;SDS011;3130;41.564;23.280;2023-04-03T04:20:18;3.60;;;3.30;;
6193;SDS011;3130;41.564;23.280;2023-04-03T04:22:45;4.57;;;3.50;;
6193;SDS011;3130;41.564;23.280;2023-04-03T04:25:14;3.67;;;3.37;;
6193;SDS011;3130;41.564;23.280;2023-04-03T04:27:41;4.47;;;3.63;;
6193;SDS011;3130;41.564;23.280;2023-04-03T04:30:08;3.27;;;2.97;;
6193;SDS011;3130;41.564;23.280;2023-04-03T04:32:37;3.57;;;2.97;;
6193;SDS011;3130;41.564;23.280;2023-04-03T04:35:04;3.57;;;3.27;;
6193;SDS011;3130;41.564;23.280;2023-04-03T04:37:31;3.50;;;2.83;;
6193;SDS011;3130;41.564;23.280;2023-04-03T04:39:59;3.80;;;3.50;;
6193;SDS011;3130;41.564;23.280;2023-04-03T04:42:27;5.57;;;4.37;;
6193;SDS011;3130;41.564;23.280;2023-04-03T04:44:54;4.33;;;3.80;;
6193;SDS011;3130;41.564;23.280;2023-04-03T04:47:22;4.97;;;4.20;;
6193;SDS011;3130;41.564;23.280;2023-04-03T04:49:49;6.43;;;3.43;;
6193;SDS011;3130;41.564;23.280;2023-04-03T04:52:15;6.87;;;4.00;;
6193;SDS011;3130;41.564;23.280;2023-04-03T04:54:42;4.40;;;4.00;;
6193;SDS011;3130;41.564;23.280;2023-04-03T04:57:09;3.20;;;3.00;;
6193;SDS011;3130;41.564;23.280;2023-04-03T04:59:38;4.23;;;3.83;;
6193;SDS011;3130;41.564;23.280;2023-04-03T05:02:05;5.73;;;4.07;;
6193;SDS011;3130;41.564;23.280;2023-04-03T05:04:32;4.83;;;3.63;;
6193;SDS011;3130;41.564;23.280;2023-04-03T05:06:59;4.53;;;3.93;;
6193;SDS011;3130;41.564;23.280;2023-04-03T05:09:26;5.57;;;3.43;;
6193;SDS011;3130;41.564;23.280;2023-04-03T05:11:53;3.33;;;3.03;;
6193;SDS011;3130;41.564;23.280;2023-04-03T05:14:21;3.57;;;3.27;;
6193;SDS011;3130;41.564;23.280;2023-04-03T05:16:49;4.07;;;3.33;;
6193;SDS011;3130;41.564;23.280;2023-04-03T05:19:19;3.60;;;3.30;;
6193;SDS011;3130;41.564;23.280;2023-04-03T05:21:46;4.53;;;3.47;;
6193;SDS011;3130;41.564;23.280;2023-04-03T05:24:13;3.97;;;3.67;;
6193;SDS011;3130;41.564;23.280;2023-04-03T05:26:41;4.03;;;3.33;;
6193;SDS011;3130;41.564;23.280;2023-04-03T05:29:08;8.93;;;4.03;;
6193;SDS011;3130;41.564;23.280;2023-04-03T05:31:35;3.67;;;3.23;;
6193;SDS011;3130;41.564;23.280;2023-04-03T05:34:04;5.57;;;3.33;;
6193;SDS011;3130;41.564;23.280;2023-04-03T05:36:31;7.07;;;3.27;;
6193;SDS011;3130;41.564;23.280;2023-04-03T05:38:58;6.60;;;3.57;;
6193;SDS011;3130;41.564;23.280;2023-04-03T05:41:25;3.97;;;2.80;;
6193;SDS011;3130;41.564;23.280;2023-04-03T05:43:53;4.57;;;3.93;;
6193;SDS011;3130;41.564;23.280;2023-04-03T05:46:20;4.03;;;3.60;;
6193;SDS011;3130;41.564;23.280;2023-04-03T05:48:47;5.30;;;3.93;;
6193;SDS011;3130;41.564;23.280;2023-04-03T05:51:17;8.77;;;4.47;;
6193;SDS011;3130;41.564;23.280;2023-04-03T05:53:45;4.87;;;4.00;;
6193;SDS011;3130;41.564;23.280;2023-04-03T05:56:14;5.60;;;4.50;;
6193;SDS011;3130;41.564;23.280;2023-04-03T05:58:41;6.27;;;4.13;;
6193;SDS011;3130;41.564;23.280;2023-04-03T06:01:08;4.27;;;3.70;;
6193;SDS011;3130;41.564;23.280;2023-04-03T06:03:35;6.90;;;4.27;;
6193;SDS011;3130;41.564;23.280;2023-04-03T06:06:03;5.87;;;4.03;;
6193;SDS011;3130;41.564;23.280;2023-04-03T06:08:32;6.77;;;4.90;;
6193;SDS011;3130;41.564;23.280;2023-04-03T06:11:00;7.10;;;4.87;;
6193;SDS011;3130;41.564;23.280;2023-04-03T06:13:27;8.13;;;5.73;;
6193;SDS011;3130;41.564;23.280;2023-04-03T06:15:55;6.47;;;5.10;;
6193;SDS011;3130;41.564;23.280;2023-04-03T06:18:22;5.67;;;3.80;;
6193;SDS011;3130;41.564;23.280;2023-04-03T06:20:49;4.60;;;4.20;;
6193;SDS011;3130;41.564;23.280;2023-04-03T06:23:16;5.20;;;3.63;;
6193;SDS011;3130;41.564;23.280;2023-04-03T06:25:45;3.67;;;3.37;;
6193;SDS011;3130;41.564;23.280;2023-04-03T06:28:12;3.17;;;2.97;;
6193;SDS011;3130;41.564;23.280;2023-04-03T06:30:39;4.20;;;3.70;;
6193;SDS011;3130;41.564;23.280;2023-04-03T06:33:06;4.30;;;3.80;;
6193;SDS011;3130;41.564;23.280;2023-04-03T06:35:34;4.83;;;3.57;;
6193;SDS011;3130;41.564;23.280;2023-04-03T06:38:01;9.60;;;4.90;;
6193;SDS011;3130;41.564;23.280;2023-04-03T06:40:34;5.20;;;4.53;;
6193;SDS011;3130;41.564;23.280;2023-04-03T06:43:03;7.90;;;5.17;;
6193;SDS011;3130;41.564;23.280;2023-04-03T06:45:31;7.90;;;5.13;;
6193;SDS011;3130;41.564;23.280;2023-04-03T06:47:58;10.57;;;6.47;;
6193;SDS011;3130;41.564;23.280;2023-04-03T06:50:25;8.93;;;5.00;;
6193;SDS011;3130;41.564;23.280;2023-04-03T06:52:52;9.43;;;5.00;;
6193;SDS011;3130;41.564;23.280;2023-04-03T06:55:19;8.40;;;6.17;;
6193;SDS011;3130;41.564;23.280;2023-04-03T06:57:46;5.23;;;3.93;;
6193;SDS011;3130;41.564;23.280;2023-04-03T07:00:15;8.37;;;4.97;;
6193;SDS011;3130;41.564;23.280;2023-04-03T07:02:43;25.17;;;14.57;;
6193;SDS011;3130;41.564;23.280;2023-04-03T07:05:10;9.07;;;5.70;;
6193;SDS011;3130;41.564;23.280;2023-04-03T07:07:38;6.03;;;4.47;;
6193;SDS011;3130;41.564;23.280;2023-04-03T07:10:06;6.93;;;5.17;;
6193;SDS011;3130;41.564;23.280;2023-04-03T07:12:35;14.20;;;8.73;;
6193;SDS011;3130;41.564;23.280;2023-04-03T07:15:03;10.33;;;6.27;;
6193;SDS011;3130;41.564;23.280;2023-04-03T07:17:32;10.87;;;5.20;;
6193;SDS011;3130;41.564;23.280;2023-04-03T07:19:59;9.63;;;5.93;;
6193;SDS011;3130;41.564;23.280;2023-04-03T07:22:26;6.07;;;5.37;;
6193;SDS011;3130;41.564;23.280;2023-04-03T07:24:53;13.87;;;8.00;;
6193;SDS011;3130;41.564;23.280;2023-04-03T07:27:20;12.27;;;7.10;;
6193;SDS011;3130;41.564;23.280;2023-04-03T07:29:47;12.33;;;9.93;;
6193;SDS011;3130;41.564;23.280;2023-04-03T07:32:14;8.87;;;7.27;;
6193;SDS011;3130;41.564;23.280;2023-04-03T07:34:44;6.23;;;5.10;;
6193;SDS011;3130;41.564;23.280;2023-04-03T07:37:11;9.60;;;5.97;;
6193;SDS011;3130;41.564;23.280;2023-04-03T07:39:38;11.00;;;6.93;;
6193;SDS011;3130;41.564;23.280;2023-04-03T07:42:05;7.40;;;5.40;;
6193;SDS011;3130;41.564;23.280;2023-04-03T07:44:32;9.57;;;5.23;;
6193;SDS011;3130;41.564;23.280;2023-04-03T07:47:00;5.73;;;4.80;;
6193;SDS011;3130;41.564;23.280;2023-04-03T07:49:27;8.93;;;5.67;;
6193;SDS011;3130;41.564;23.280;2023-04-03T07:51:56;7.70;;;4.70;;
6193;SDS011;3130;41.564;23.280;2023-04-03T07:54:23;10.60;;;6.10;;
6193;SDS011;3130;41.564;23.280;2023-04-03T07:56:51;6.13;;;5.10;;
6193;SDS011;3130;41.564;23.280;2023-04-03T07:59:18;13.33;;;8.10;;
6193;SDS011;3130;41.564;23.280;2023-04-03T08:01:45;10.40;;;7.03;;
6193;SDS011;3130;41.564;23.280;2023-04-03T08:04:12;10.70;;;7.03;;
6193;SDS011;3130;41.564;23.280;2023-04-03T08:06:39;15.13;;;8.57;;
6193;SDS011;3130;41.564;23.280;2023-04-03T08:09:07;8.73;;;5.90;;
6193;SDS011;3130;41.564;23.280;2023-04-03T08:11:34;13.53;;;8.07;;
6193;SDS011;3130;41.564;23.280;2023-04-03T08:14:01;11.60;;;7.50;;
6193;SDS011;3130;41.564;23.280;2023-04-03T08:16:28;16.27;;;9.37;;
6193;SDS011;3130;41.564;23.280;2023-04-03T08:18:55;11.07;;;9.17;;
6193;SDS011;3130;41.564;23.280;2023-04-03T08:21:22;9.50;;;6.20;;
6193;SDS011;3130;41.564;23.280;2023-04-03T08:23:50;9.97;;;5.93;;
6193;SDS011;3130;41.564;23.280;2023-04-03T08:26:19;6.87;;;5.10;;
6193;SDS011;3130;41.564;23.280;2023-04-03T08:28:47;9.37;;;6.30;;
6193;SDS011;3130;41.564;23.280;2023-04-03T08:31:16;7.43;;;5.20;;
6193;SDS011;3130;41.564;23.280;2023-04-03T08:33:45;5.47;;;4.23;;
6193;SDS011;3130;41.564;23.280;2023-04-03T08:36:22;6.03;;;4.07;;
6193;SDS011;3130;41.564;23.280;2023-04-03T08:38:50;7.70;;;4.17;;
6193;SDS011;3130;41.564;23.280;2023-04-03T08:41:22;6.57;;;4.63;;
6193;SDS011;3130;41.564;23.280;2023-04-03T08:43:56;7.07;;;4.03;;
6193;SDS011;3130;41.564;23.280;2023-04-03T08:46:31;7.87;;;5.43;;
6193;SDS011;3130;41.564;23.280;2023-04-03T08:49:07;15.87;;;10.77;;
6193;SDS011;3130;41.564;23.280;2023-04-03T08:51:42;17.37;;;11.63;;
6193;SDS011;3130;41.564;23.280;2023-04-03T08:54:15;18.87;;;11.20;;
6193;SDS011;3130;41.564;23.280;2023-04-03T08:56:51;18.00;;;11.43;;
6193;SDS011;3130;41.564;23.280;2023-04-03T08:59:21;18.70;;;10.07;;
6193;SDS011;3130;41.564;23.280;2023-04-03T09:01:54;10.80;;;9.03;;
6193;SDS011;3130;41.564;23.280;2023-04-03T09:04:24;10.07;;;7.13;;
6193;SDS011;3130;41.564;23.280;2023-04-03T09:06:55;13.03;;;7.47;;
6193;SDS011;3130;41.564;23.280;2023-04-03T09:09:29;7.33;;;5.80;;
6193;SDS011;3130;41.564;23.280;2023-04-03T09:12:04;8.37;;;6.60;;
6193;SDS011;3130;41.564;23.280;2023-04-03T09:14:41;14.33;;;7.57;;
6193;SDS011;3130;41.564;23.280;2023-04-03T09:17:13;7.97;;;6.93;;
6193;SDS011;3130;41.564;23.280;2023-04-03T09:19:48;11.77;;;9.37;;
6193;SDS011;3130;41.564;23.280;2023-04-03T09:22:22;19.50;;;14.43;;
6193;SDS011;3130;41.564;23.280;2023-04-03T09:24:53;19.57;;;14.97;;
6193;SDS011;3130;41.564;23.280;2023-04-03T09:27:27;15.50;;;11.63;;
6193;SDS011;3130;41.564;23.280;2023-04-03T09:29:55;16.57;;;11.70;;
6193;SDS011;3130;41.564;23.280;2023-04-03T09:32:25;20.20;;;12.57;;
6193;SDS011;3130;41.564;23.280;2023-04-03T09:34:54;17.13;;;10.87;;
6193;SDS011;3130;41.564;23.280;2023-04-03T09:37:38;14.30;;;10.47;;
6193;SDS011;3130;41.564;23.280;2023-04-03T09:42:59;15.70;;;10.47;;
6193;SDS011;3130;41.564;23.280;2023-04-03T09:45:28;15.20;;;11.87;;
6193;SDS011;3130;41.564;23.280;2023-04-03T09:48:05;19.43;;;14.30;;
6193;SDS011;3130;41.564;23.280;2023-04-03T09:50:34;24.23;;;18.10;;
6193;SDS011;3130;41.564;23.280;2023-04-03T09:53:04;24.40;;;18.47;;
6193;SDS011;3130;41.564;23.280;2023-04-03T09:55:33;26.03;;;18.67;;
6193;SDS011;3130;41.564;23.280;2023-04-03T09:58:22;24.90;;;18.57;;
6193;SDS011;3130;41.564;23.280;2023-04-03T10:00:53;21.23;;;14.67;;
6193;SDS011;3130;41.564;23.280;2023-04-03T10:03:23;19.90;;;16.33;;
6193;SDS011;3130;41.564;23.280;2023-04-03T10:05:52;18.40;;;13.73;;
6193;SDS011;3130;41.564;23.280;2023-04-03T10:08:21;20.60;;;14.47;;
6193;SDS011;3130;41.564;23.280;2023-04-03T10:11:05;22.17;;;16.00;;
6193;SDS011;3130;41.564;23.280;2023-04-03T10:13:36;21.67;;;15.40;;
6193;SDS011;3130;41.564;23.280;2023-04-03T10:16:18;21.63;;;15.83;;
6193;SDS011;3130;41.564;23.280;2023-04-03T10:18:49;17.57;;;15.23;;
6193;SDS011;3130;41.564;23.280;2023-04-03T10:21:29;23.10;;;17.73;;
6193;SDS011;3130;41.564;23.280;2023-04-03T10:24:06;30.80;;;25.07;;
6193;SDS011;3130;41.564;23.280;2023-04-03T10:26:39;27.57;;;23.07;;
6193;SDS011;3130;41.564;23.280;2023-04-03T10:29:16;29.47;;;23.03;;
6193;SDS011;3130;41.564;23.280;2023-04-03T10:31:57;31.20;;;23.60;;
6193;SDS011;3130;41.564;23.280;2023-04-03T10:34:29;31.50;;;26.53;;
6193;SDS011;3130;41.564;23.280;2023-04-03T10:37:02;26.33;;;23.57;;
6193;SDS011;3130;41.564;23.280;2023-04-03T10:39:36;28.10;;;21.00;;
6193;SDS011;3130;41.564;23.280;2023-04-03T10:42:11;28.57;;;21.43;;
6193;SDS011;3130;41.564;23.280;2023-04-03T10:44:51;24.23;;;20.33;;
6193;SDS011;3130;41.564;23.280;2023-04-03T10:47:28;24.17;;;19.20;;
6193;SDS011;3130;41.564;23.280;2023-04-03T10:50:02;24.13;;;16.67;;
6193;SDS011;3130;41.564;23.280;2023-04-03T10:52:47;18.57;;;15.37;;
6193;SDS011;3130;41.564;23.280;2023-04-03T10:55:24;22.93;;;17.67;;
6193;SDS011;3130;41.564;23.280;2023-04-03T10:58:00;20.97;;;17.57;;
6193;SDS011;3130;41.564;23.280;2023-04-03T11:00:33;20.63;;;13.97;;
6193;SDS011;3130;41.564;23.280;2023-04-03T11:03:05;19.90;;;14.50;;
6193;SDS011;3130;41.564;23.280;2023-04-03T11:05:37;19.80;;;13.50;;
6193;SDS011;3130;41.564;23.280;2023-04-03T11:08:11;19.13;;;14.93;;
6193;SDS011;3130;41.564;23.280;2023-04-03T11:10:48;17.80;;;15.90;;
6193;SDS011;3130;41.564;23.280;2023-04-03T11:13:18;22.90;;;17.60;;
6193;SDS011;3130;41.564;23.280;2023-04-03T11:15:53;22.57;;;15.37;;
6193;SDS011;3130;41.564;23.280;2023-04-03T11:18:21;20.13;;;14.17;;
6193;SDS011;3130;41.564;23.280;2023-04-03T11:20:56;18.27;;;13.87;;
6193;SDS011;3130;41.564;23.280;2023-04-03T11:23:30;19.97;;;16.13;;
6193;SDS011;3130;41.564;23.280;2023-04-03T11:26:06;18.93;;;14.00;;
6193;SDS011;3130;41.564;23.280;2023-04-03T11:28:36;19.47;;;14.67;;
6193;SDS011;3130;41.564;23.280;2023-04-03T11:31:09;15.87;;;12.50;;
6193;SDS011;3130;41.564;23.280;2023-04-03T11:33:51;12.67;;;10.00;;
6193;SDS011;3130;41.564;23.280;2023-04-03T11:36:25;16.07;;;11.17;;
6193;SDS011;3130;41.564;23.280;2023-04-03T11:38:57;14.73;;;12.13;;
6193;SDS011;3130;41.564;23.280;2023-04-03T11:41:27;16.23;;;11.77;;
6193;SDS011;3130;41.564;23.280;2023-04-03T11:43:57;12.40;;;10.17;;
6193;SDS011;3130;41.564;23.280;2023-04-03T11:55:44;12.00;;;10.43;;
6193;SDS011;3130;41.564;23.280;2023-04-03T11:58:23;11.83;;;9.97;;
6193;SDS011;3130;41.564;23.280;2023-04-03T12:00:52;15.10;;;11.47;;
6193;SDS011;3130;41.564;23.280;2023-04-03T12:03:55;12.80;;;9.77;;
6193;SDS011;3130;41.564;23.280;2023-04-03T12:12:43;12.00;;;8.67;;
6193;SDS011;3130;41.564;23.280;2023-04-03T12:24:26;14.53;;;8.87;;
6193;SDS011;3130;41.564;23.280;2023-04-03T12:27:05;11.40;;;8.10;;
6193;SDS011;3130;41.564;23.280;2023-04-03T12:29:43;11.70;;;8.40;;
6193;SDS011;3130;41.564;23.280;2023-04-03T12:32:21;10.00;;;8.40;;
6193;SDS011;3130;41.564;23.280;2023-04-03T12:35:04;9.83;;;7.73;;
6193;SDS011;3130;41.564;23.280;2023-04-03T12:37:39;9.95;;;8.30;;
6193;SDS011;3130;41.564;23.280;2023-04-03T12:40:17;10.20;;;8.80;;
6193;SDS011;3130;41.564;23.280;2023-04-03T12:45:56;13.03;;;10.10;;
6193;SDS011;3130;41.564;23.280;2023-04-03T12:48:29;10.17;;;8.50;;
6193;SDS011;3130;41.564;23.280;2023-04-03T12:51:01;10.60;;;8.20;;
6193;SDS011;3130;41.564;23.280;2023-04-03T12:53:29;10.27;;;7.87;;
6193;SDS011;3130;41.564;23.280;2023-04-03T12:58:51;13.77;;;9.37;;
6193;SDS011;3130;41.564;23.280;2023-04-03T13:01:21;15.70;;;11.50;;
6193;SDS011;3130;41.564;23.280;2023-04-03T13:03:50;14.77;;;12.47;;
6193;SDS011;3130;41.564;23.280;2023-04-03T13:06:21;12.23;;;9.40;;
6193;SDS011;3130;41.564;23.280;2023-04-03T13:08:51;11.93;;;7.97;;
6193;SDS011;3130;41.564;23.280;2023-04-03T13:11:19;15.10;;;8.67;;
6193;SDS011;3130;41.564;23.280;2023-04-03T13:13:55;14.47;;;10.07;;
6193;SDS011;3130;41.564;23.280;2023-04-03T13:16:23;7.53;;;6.73;;
6193;SDS011;3130;41.564;23.280;2023-04-03T13:18:51;8.07;;;6.50;;
6193;SDS011;3130;41.564;23.280;2023-04-03T13:21:19;8.87;;;7.90;;
6193;SDS011;3130;41.564;23.280;2023-04-03T13:23:50;9.73;;;8.17;;
6193;SDS011;3130;41.564;23.280;2023-04-03T13:26:18;13.33;;;9.57;;
6193;SDS011;3130;41.564;23.280;2023-04-03T13:28:48;12.20;;;8.80;;
6193;SDS011;3130;41.564;23.280;2023-04-03T13:31:18;11.23;;;9.10;;
6193;SDS011;3130;41.564;23.280;2023-04-03T13:33:59;10.33;;;8.50;;
6193;SDS011;3130;41.564;23.280;2023-04-03T13:36:34;9.70;;;8.70;;
6193;SDS011;3130;41.564;23.280;2023-04-03T13:39:18;10.70;;;9.20;;
6193;SDS011;3130;41.564;23.280;2023-04-03T13:41:49;10.57;;;8.57;;
6193;SDS011;3130;41.564;23.280;2023-04-03T13:44:24;10.43;;;7.40;;
6193;SDS011;3130;41.564;23.280;2023-04-03T13:46:55;8.03;;;6.53;;
6193;SDS011;3130;41.564;23.280;2023-04-03T13:49:28;11.70;;;9.97;;
6193;SDS011;3130;41.564;23.280;2023-04-03T13:51:59;12.33;;;10.20;;
6193;SDS011;3130;41.564;23.280;2023-04-03T13:54:29;23.67;;;16.77;;
6193;SDS011;3130;41.564;23.280;2023-04-03T13:56:59;27.77;;;17.50;;
6193;SDS011;3130;41.564;23.280;2023-04-03T13:59:29;14.07;;;9.77;;
6193;SDS011;3130;41.564;23.280;2023-04-03T14:02:09;11.07;;;9.30;;
6193;SDS011;3130;41.564;23.280;2023-04-03T14:04:45;14.90;;;10.50;;
6193;SDS011;3130;41.564;23.280;2023-04-03T14:07:17;20.80;;;15.47;;
6193;SDS011;3130;41.564;23.280;2023-04-03T14:09:45;23.73;;;16.23;;
6193;SDS011;3130;41.564;23.280;2023-04-03T14:12:13;19.47;;;14.67;;
6193;SDS011;3130;41.564;23.280;2023-04-03T14:14:44;22.23;;;13.77;;
6193;SDS011;3130;41.564;23.280;2023-04-03T14:17:13;18.97;;;13.60;;
6193;SDS011;3130;41.564;23.280;2023-04-03T14:19:42;21.47;;;13.30;;
6193;SDS011;3130;41.564;23.280;2023-04-03T14:22:13;17.30;;;13.37;;
6193;SDS011;3130;41.564;23.280;2023-04-03T14:24:43;15.63;;;11.33;;
6193;SDS011;3130;41.564;23.280;2023-04-03T14:27:14;12.53;;;9.97;;
6193;SDS011;3130;41.564;23.280;2023-04-03T14:29:44;14.00;;;10.03;;
6193;SDS011;3130;41.564;23.280;2023-04-03T14:32:12;11.50;;;8.73;;
6193;SDS011;3130;41.564;23.280;2023-04-03T14:34:40;14.00;;;9.80;;
6193;SDS011;3130;41.564;23.280;2023-04-03T14:37:09;17.57;;;13.33;;
6193;SDS011;3130;41.564;23.280;2023-04-03T14:39:38;11.33;;;9.77;;
6193;SDS011;3130;41.564;23.280;2023-04-03T14:42:09;14.80;;;10.83;;
6193;SDS011;3130;41.564;23.280;2023-04-03T14:44:39;13.63;;;10.20;;
6193;SDS011;3130;41.564;23.280;2023-04-03T14:47:08;18.03;;;13.73;;
6193;SDS011;3130;41.564;23.280;2023-04-03T14:49:37;13.97;;;9.90;;
6193;SDS011;3130;41.564;23.280;2023-04-03T14:52:04;16.67;;;9.80;;
6193;SDS011;3130;41.564;23.280;2023-04-03T14:54:31;14.93;;;10.90;;
6193;SDS011;3130;41.564;23.280;2023-04-03T14:56:59;13.20;;;10.63;;
6193;SDS011;3130;41.564;23.280;2023-04-03T14:59:29;9.17;;;7.73;;
6193;SDS011;3130;41.564;23.280;2023-04-03T15:01:58;8.37;;;7.13;;
6193;SDS011;3130;41.564;23.280;2023-04-03T15:04:25;8.73;;;7.50;;
6193;SDS011;3130;41.564;23.280;2023-04-03T15:06:53;10.60;;;7.57;;
6193;SDS011;3130;41.564;23.280;2023-04-03T15:09:21;8.53;;;7.30;;
6193;SDS011;3130;41.564;23.280;2023-04-03T15:11:51;13.00;;;9.63;;
6193;SDS011;3130;41.564;23.280;2023-04-03T15:14:19;18.20;;;16.27;;
6193;SDS011;3130;41.564;23.280;2023-04-03T15:16:49;16.50;;;12.33;;
6193;SDS011;3130;41.564;23.280;2023-04-03T15:19:17;13.27;;;11.93;;
6193;SDS011;3130;41.564;23.280;2023-04-03T15:21:44;14.53;;;10.87;;
6193;SDS011;3130;41.564;23.280;2023-04-03T15:24:11;14.17;;;11.33;;
6193;SDS011;3130;41.564;23.280;2023-04-03T15:26:38;16.53;;;12.17;;
6193;SDS011;3130;41.564;23.280;2023-04-03T15:29:06;16.33;;;11.83;;
6193;SDS011;3130;41.564;23.280;2023-04-03T15:31:33;22.93;;;11.33;;
6193;SDS011;3130;41.564;23.280;2023-04-03T15:34:02;17.90;;;12.80;;
6193;SDS011;3130;41.564;23.280;2023-04-03T15:36:29;15.70;;;12.43;;
6193;SDS011;3130;41.564;23.280;2023-04-03T15:38:56;15.53;;;11.97;;
6193;SDS011;3130;41.564;23.280;2023-04-03T15:41:23;15.03;;;11.50;;
6193;SDS011;3130;41.564;23.280;2023-04-03T15:43:50;14.87;;;11.70;;
6193;SDS011;3130;41.564;23.280;2023-04-03T15:46:17;14.50;;;11.07;;